Beachs Corner, Idaho
Current Conditions -  °F | °C
As of 2:30 AM on Saturday 20 Dec 2014 (Local Time) from KIDA Reporting Station
Overcast Overcast  
Wind Chill: 35°   Ceiling: 1200
Heat Index: 35°   Visibility: 10mi
Dew Point: 33°   Wind: 0mph
Humidity: 92%   Direction: NA
Pressure: 30.08"   Gusts: NA
Location:  43.498°N, 111.73°W
Report Text: KIDA 200930Z AUTO 00000KT 10SM OVC012 02/01 A3008 RMK AO2 T00170006
Loading
Personal Weather Stations






























Interactive Weather Map New forecast layout! Learn more

10-Day Weather Forecast

Advertisements
Track Severe Weather on mobile